Time;durP1;ratioP1;P1;durP2;ratioP2;P2;SDS_P1;SDS_P2;PMS_P1;PMS_P2;Temp;Humidity;BMP_temperature;BMP_pressure;BME280_temperature;BME280_humidity;BME280_pressure;Samples;Min_cycle;Max_cycle;Signal;HPM_P1;HPM_P2
2022/08/13 00:02:02;;;;;;;4.22;2.63;;;20.60;99.90;;;;;;5054066;28;20412;-84
2022/08/13 00:04:28;;;;;;;6.63;2.83;;;20.60;99.90;;;;;;5054096;28;20041;-85
2022/08/13 00:09:25;;;;;;;4.28;2.45;;;20.50;99.90;;;;;;5053444;28;20400;-84
2022/08/13 00:14:37;;;;;;;5.28;3.17;;;20.40;99.90;;;;;;5053866;28;20625;-84
2022/08/13 00:17:12;;;;;;;4.72;2.70;;;20.40;99.90;;;;;;5052521;28;20098;-84
2022/08/13 00:19:40;;;;;;;5.28;2.90;;;20.30;99.90;;;;;;5053856;28;20049;-84
2022/08/13 00:22:09;;;;;;;5.18;2.90;;;20.20;99.90;;;;;;5053832;28;20040;-84
2022/08/13 00:24:34;;;;;;;5.03;2.85;;;20.20;99.90;;;;;;5052428;28;20133;-83
2022/08/13 00:27:01;;;;;;;5.57;3.10;;;20.10;99.90;;;;;;5053474;28;20136;-84
2022/08/13 00:29:28;;;;;;;6.07;3.38;;;20.10;99.90;;;;;;5052701;28;20195;-84
2022/08/13 00:31:54;;;;;;;5.85;2.90;;;20.00;99.90;;;;;;5053702;28;20041;-84
2022/08/13 00:34:20;;;;;;;5.88;2.83;;;19.90;99.90;;;;;;5052549;28;20055;-84
2022/08/13 00:36:47;;;;;;;6.22;3.30;;;19.80;99.90;;;;;;5053564;28;20131;-84
2022/08/13 00:39:13;;;;;;;6.65;3.08;;;19.80;99.90;;;;;;5053513;28;20392;-84
2022/08/13 00:41:42;;;;;;;7.40;3.10;;;19.80;99.90;;;;;;5053620;28;20040;-84
2022/08/13 00:44:10;;;;;;;5.38;3.00;;;19.70;99.90;;;;;;5053169;28;20571;-85
2022/08/13 00:46:37;;;;;;;5.72;3.33;;;19.70;99.90;;;;;;5053358;28;20053;-84
2022/08/13 00:49:04;;;;;;;5.28;2.90;;;19.50;99.90;;;;;;5053681;28;20453;-84
2022/08/13 00:51:33;;;;;;;6.68;3.00;;;19.50;99.90;;;;;;5053499;28;20043;-84
2022/08/13 00:54:02;;;;;;;4.72;3.13;;;19.40;99.90;;;;;;5052166;28;20048;-84
2022/08/13 00:56:33;;;;;;;6.50;3.22;;;19.30;99.90;;;;;;5053334;28;20118;-84
2022/08/13 00:59:07;;;;;;;4.72;2.80;;;19.20;99.90;;;;;;5052028;28;20480;-83
2022/08/13 01:01:35;;;;;;;5.72;3.25;;;19.20;99.90;;;;;;5053293;28;20370;-83
2022/08/13 01:04:03;;;;;;;5.13;2.80;;;19.10;99.90;;;;;;5053394;28;20049;-83
2022/08/13 01:06:29;;;;;;;4.95;2.88;;;19.00;99.90;;;;;;5053367;28;20108;-84
2022/08/13 01:08:54;;;;;;;5.70;3.20;;;19.00;99.90;;;;;;5053390;28;20576;-84
2022/08/13 01:11:23;;;;;;;5.35;3.10;;;18.90;99.90;;;;;;5053358;28;20465;-84
2022/08/13 01:13:51;;;;;;;3.90;2.78;;;18.90;99.90;;;;;;5053355;28;20102;-84
2022/08/13 01:16:18;;;;;;;5.13;3.47;;;18.80;99.90;;;;;;5051793;28;20440;-84
2022/08/13 01:18:49;;;;;;;4.28;3.13;;;18.80;99.90;;;;;;5051937;28;20041;-84
2022/08/13 01:21:18;;;;;;;6.70;3.45;;;18.80;99.90;;;;;;5054215;28;20052;-84
2022/08/13 01:23:53;;;;;;;4.97;3.00;;;18.70;99.90;;;;;;5057003;28;20489;-84
2022/08/13 01:26:21;;;;;;;6.07;3.38;;;18.70;99.90;;;;;;5057134;28;20060;-84
2022/08/13 01:28:50;;;;;;;6.72;3.55;;;18.60;99.90;;;;;;5057337;28;20449;-84
2022/08/13 01:31:18;;;;;;;6.80;3.70;;;18.50;99.90;;;;;;5057045;28;20041;-83
2022/08/13 01:33:45;;;;;;;6.72;3.67;;;18.50;99.90;;;;;;5056935;28;20084;-84
2022/08/13 01:36:12;;;;;;;10.32;4.00;;;18.50;99.90;;;;;;5056773;28;20048;-84
2022/08/13 01:38:39;;;;;;;8.40;3.75;;;18.40;99.90;;;;;;5056869;28;20045;-83
2022/08/13 01:41:08;;;;;;;4.88;3.30;;;18.40;99.90;;;;;;5056817;28;20063;-82
2022/08/13 01:43:40;;;;;;;8.95;3.75;;;18.40;99.90;;;;;;5056523;28;20127;-83
2022/08/13 01:46:10;;;;;;;7.80;3.80;;;18.40;99.90;;;;;;5056787;28;20044;-84
2022/08/13 01:51:33;;;;;;;7.75;3.65;;;18.30;99.90;;;;;;5056597;28;20052;-83
2022/08/13 01:53:59;;;;;;;10.43;3.45;;;18.30;99.90;;;;;;5056628;28;20041;-83
2022/08/13 01:56:28;;;;;;;4.82;3.25;;;18.20;99.90;;;;;;5056393;28;20063;-83
2022/08/13 01:58:59;;;;;;;7.90;4.35;;;18.20;99.90;;;;;;5056479;28;20049;-83
2022/08/13 02:01:26;;;;;;;6.25;3.70;;;18.10;99.90;;;;;;5055207;28;20049;-83
2022/08/13 02:03:53;;;;;;;4.50;3.22;;;18.20;99.90;;;;;;5054946;28;20114;-83
2022/08/13 02:06:24;;;;;;;6.30;3.80;;;18.10;99.90;;;;;;5055144;28;20045;-84
2022/08/13 02:08:51;;;;;;;5.82;3.97;;;18.10;99.90;;;;;;5056290;28;20053;-83
2022/08/13 02:11:18;;;;;;;7.13;4.53;;;18.00;99.90;;;;;;5056271;28;20076;-82
2022/08/13 02:13:44;;;;;;;5.25;3.65;;;18.00;99.90;;;;;;5054869;28;20038;-82
2022/08/13 02:16:10;;;;;;;6.68;3.67;;;18.00;99.90;;;;;;5054863;28;20052;-84
2022/08/13 02:18:36;;;;;;;10.10;4.35;;;18.00;99.90;;;;;;5056085;28;20485;-83
2022/08/13 02:21:02;;;;;;;6.53;4.20;;;18.00;99.90;;;;;;5055946;28;20044;-83
2022/08/13 02:23:32;;;;;;;5.85;4.13;;;18.00;99.90;;;;;;5054726;28;20044;-82
2022/08/13 02:26:00;;;;;;;5.75;4.07;;;18.00;99.90;;;;;;5055644;28;20504;-83
2022/08/13 02:28:28;;;;;;;6.18;4.20;;;18.00;99.90;;;;;;5055969;28;20064;-83
2022/08/13 02:30:57;;;;;;;8.90;4.55;;;18.00;99.90;;;;;;5055935;28;20075;-82
2022/08/13 02:33:23;;;;;;;6.93;4.63;;;18.00;99.90;;;;;;5053691;28;20045;-83
2022/08/13 02:35:49;;;;;;;8.07;4.60;;;18.00;99.90;;;;;;5054400;28;20048;-83
2022/08/13 02:38:16;;;;;;;6.45;4.70;;;18.00;99.90;;;;;;5055722;28;20041;-83
2022/08/13 02:43:28;;;;;;;9.57;5.32;;;18.00;99.90;;;;;;5055629;28;20055;-84
2022/08/13 02:45:54;;;;;;;8.90;5.35;;;18.10;99.90;;;;;;5055638;28;20041;-83
2022/08/13 02:48:22;;;;;;;6.28;4.68;;;18.10;99.90;;;;;;5054245;28;20052;-82
2022/08/13 02:50:49;;;;;;;6.00;4.90;;;18.10;99.90;;;;;;5054211;28;20045;-82
2022/08/13 02:53:14;;;;;;;6.45;4.68;;;18.10;99.90;;;;;;5055394;28;20091;-82
2022/08/13 02:55:44;;;;;;;8.80;4.80;;;18.20;99.90;;;;;;5054100;28;20400;-83
2022/08/13 02:58:09;;;;;;;9.05;5.13;;;18.20;99.90;;;;;;5055247;28;20041;-84
2022/08/13 03:00:36;;;;;;;7.88;4.88;;;18.20;99.90;;;;;;5054194;28;20041;-84
2022/08/13 03:03:03;;;;;;;6.00;4.70;;;18.20;99.90;;;;;;5053962;28;20056;-84
2022/08/13 03:05:30;;;;;;;7.97;4.65;;;18.30;99.90;;;;;;5053964;28;20120;-83
2022/08/13 03:07:57;;;;;;;7.88;5.07;;;18.20;99.90;;;;;;5055088;28;20071;-84
2022/08/13 03:10:27;;;;;;;10.90;5.43;;;18.20;99.90;;;;;;5054986;28;20519;-81
2022/08/13 03:13:07;;;;;;;8.57;4.80;;;18.20;99.90;;;;;;5054974;28;20480;-82
2022/08/13 03:15:34;;;;;;;6.32;4.32;;;18.30;99.90;;;;;;5053651;28;20037;-82
2022/08/13 03:18:00;;;;;;;6.93;4.43;;;18.20;99.90;;;;;;5054988;28;20037;-82
2022/08/13 03:20:26;;;;;;;7.40;4.57;;;18.20;99.90;;;;;;5054886;28;20381;-83
2022/08/13 03:22:55;;;;;;;6.97;4.57;;;18.20;99.90;;;;;;5053760;28;20047;-83
2022/08/13 03:25:29;;;;;;;5.97;4.65;;;18.20;99.90;;;;;;5053218;28;20059;-82
2022/08/13 03:27:55;;;;;;;7.00;5.10;;;18.20;99.90;;;;;;5054860;28;20041;-83
2022/08/13 03:30:22;;;;;;;6.95;4.40;;;18.20;99.90;;;;;;5054657;28;20392;-82
2022/08/13 03:32:50;;;;;;;7.50;4.72;;;18.20;99.90;;;;;;5053375;28;20060;-83
2022/08/13 03:35:18;;;;;;;4.90;4.13;;;18.20;99.90;;;;;;5054945;28;20052;-83
2022/08/13 03:37:47;;;;;;;9.25;4.72;;;18.30;99.90;;;;;;5054611;28;20037;-84
2022/08/13 03:40:15;;;;;;;9.20;4.68;;;18.30;99.90;;;;;;5054320;28;20174;-83
2022/08/13 03:42:42;;;;;;;7.40;4.85;;;18.30;99.90;;;;;;5053140;28;20048;-84
2022/08/13 03:45:09;;;;;;;5.68;4.68;;;18.30;99.90;;;;;;5053426;28;20049;-83
2022/08/13 03:47:35;;;;;;;8.75;4.63;;;18.30;99.90;;;;;;5054389;28;20476;-83
2022/08/13 03:50:04;;;;;;;6.47;4.78;;;18.30;99.90;;;;;;5053220;28;20053;-83
2022/08/13 03:52:30;;;;;;;7.85;5.30;;;18.20;99.90;;;;;;5052976;28;20056;-83
2022/08/13 03:54:57;;;;;;;7.30;4.53;;;18.20;99.90;;;;;;5054270;28;20124;-83
2022/08/13 03:57:23;;;;;;;11.02;4.93;;;18.20;99.90;;;;;;5052836;28;20045;-84
2022/08/13 03:59:49;;;;;;;7.18;4.90;;;18.20;99.90;;;;;;5054015;28;20044;-83
2022/08/13 04:02:16;;;;;;;9.57;4.90;;;18.20;99.90;;;;;;5054004;28;20048;-84
2022/08/13 04:04:46;;;;;;;7.45;4.78;;;18.20;99.90;;;;;;5053699;28;20119;-83
2022/08/13 04:07:20;;;;;;;6.80;4.95;;;18.20;99.90;;;;;;5051768;28;20056;-83
2022/08/13 04:09:46;;;;;;;6.50;4.50;;;18.20;99.90;;;;;;5051830;28;20057;-83
2022/08/13 04:12:13;;;;;;;10.13;5.30;;;18.20;99.90;;;;;;5052888;28;20048;-83
2022/08/13 04:14:40;;;;;;;6.57;4.85;;;18.20;99.90;;;;;;5052619;28;20075;-83
2022/08/13 04:17:10;;;;;;;7.03;5.00;;;18.20;99.90;;;;;;5053841;28;20052;-83
2022/08/13 04:19:40;;;;;;;5.82;5.00;;;18.10;99.90;;;;;;5052382;28;20049;-83
2022/08/13 04:22:07;;;;;;;6.65;4.88;;;18.10;99.90;;;;;;5052628;28;20056;-83
2022/08/13 04:24:33;;;;;;;6.45;4.93;;;18.10;99.90;;;;;;5053447;28;20059;-83
2022/08/13 04:27:00;;;;;;;8.75;4.78;;;18.10;99.90;;;;;;5053171;28;20411;-83
2022/08/13 04:29:26;;;;;;;6.13;3.97;;;18.10;99.90;;;;;;5053748;28;20041;-83
2022/08/13 04:31:52;;;;;;;7.57;4.00;;;18.10;99.90;;;;;;5053654;28;20047;-83
2022/08/13 04:34:20;;;;;;;5.60;4.47;;;18.10;99.90;;;;;;5053423;28;20058;-83
2022/08/13 04:36:46;;;;;;;6.88;5.10;;;18.10;99.90;;;;;;5052146;28;20045;-83
2022/08/13 04:39:12;;;;;;;6.55;4.97;;;18.10;99.90;;;;;;5053390;28;20045;-83
2022/08/13 04:41:38;;;;;;;6.90;4.60;;;18.10;99.90;;;;;;5052303;28;20132;-82
2022/08/13 04:44:03;;;;;;;8.77;4.90;;;18.10;99.90;;;;;;5053529;28;20041;-83
2022/08/13 04:46:29;;;;;;;8.82;4.82;;;18.10;99.90;;;;;;5052020;28;20075;-83
2022/08/13 04:48:55;;;;;;;6.70;4.75;;;18.10;99.90;;;;;;5053399;28;20037;-83
2022/08/13 04:51:21;;;;;;;6.78;4.38;;;18.10;99.90;;;;;;5051985;28;20049;-83
2022/08/13 04:53:46;;;;;;;8.20;4.93;;;18.10;99.90;;;;;;5053495;28;20048;-83
2022/08/13 04:56:12;;;;;;;6.13;4.68;;;18.10;99.90;;;;;;5053914;28;20507;-83
2022/08/13 04:58:38;;;;;;;5.55;4.78;;;18.10;99.90;;;;;;5057320;28;20045;-83
2022/08/13 05:01:09;;;;;;;6.80;4.40;;;18.10;99.90;;;;;;5057258;28;20484;-83
2022/08/13 05:03:47;;;;;;;6.47;4.18;;;18.10;99.90;;;;;;5055998;28;20443;-83
2022/08/13 05:06:17;;;;;;;12.73;4.70;;;18.20;99.90;;;;;;5057176;28;20484;-82
2022/08/13 05:08:43;;;;;;;7.45;4.65;;;18.20;99.90;;;;;;5057391;28;20033;-83
2022/08/13 05:11:12;;;;;;;8.75;4.13;;;18.10;99.90;;;;;;5057405;28;20059;-82
2022/08/13 05:13:39;;;;;;;6.65;4.57;;;18.20;99.90;;;;;;5057333;28;20052;-82
2022/08/13 05:16:08;;;;;;;7.20;4.60;;;18.20;99.90;;;;;;5057212;28;20083;-82
2022/08/13 05:18:37;;;;;;;7.18;4.43;;;18.20;99.90;;;;;;5055664;28;20072;-82
2022/08/13 05:21:08;;;;;;;8.00;4.45;;;18.20;99.90;;;;;;5057117;28;20052;-82
2022/08/13 05:23:35;;;;;;;8.15;5.40;;;18.20;99.90;;;;;;5056933;28;20041;-82
2022/08/13 05:26:01;;;;;;;6.03;4.28;;;18.20;99.90;;;;;;5056674;28;20099;-83
2022/08/13 05:28:27;;;;;;;6.95;5.10;;;18.20;99.90;;;;;;5057068;28;20076;-83
2022/08/13 05:30:53;;;;;;;6.25;4.38;;;18.30;99.90;;;;;;5056950;28;20059;-82
2022/08/13 05:33:22;;;;;;;8.32;4.80;;;18.30;99.90;;;;;;5056713;28;20553;-83
2022/08/13 05:35:50;;;;;;;6.68;5.07;;;18.30;99.90;;;;;;5056445;28;20480;-82
2022/08/13 05:38:20;;;;;;;7.88;4.72;;;18.40;99.90;;;;;;5056795;28;20094;-83
2022/08/13 05:40:46;;;;;;;8.18;4.32;;;18.50;99.90;;;;;;5055328;28;20435;-84
2022/08/13 05:43:15;;;;;;;7.00;4.70;;;18.50;99.90;;;;;;5056718;28;20045;-83
2022/08/13 05:45:57;;;;;;;6.35;4.97;;;18.60;99.90;;;;;;5056521;28;20056;-82
2022/08/13 05:48:33;;;;;;;8.93;5.60;;;18.70;99.90;;;;;;5055469;28;20049;-82
2022/08/13 05:51:03;;;;;;;6.47;5.15;;;18.70;99.90;;;;;;5056387;28;20060;-83
2022/08/13 05:53:30;;;;;;;5.80;4.63;;;18.80;99.90;;;;;;5056551;28;20037;-82
2022/08/13 05:55:56;;;;;;;6.75;4.07;;;18.90;99.90;;;;;;5056501;28;20123;-82
2022/08/13 05:58:23;;;;;;;7.93;4.28;;;19.00;99.90;;;;;;5054924;28;20102;-82
2022/08/13 06:03:33;;;;;;;7.80;4.75;;;19.30;99.90;;;;;;5056041;28;20053;-82
2022/08/13 06:06:01;;;;;;;7.65;4.20;;;19.50;99.90;;;;;;5056319;28;20112;-82
2022/08/13 06:08:30;;;;;;;6.82;3.65;;;19.60;99.90;;;;;;5054087;28;20056;-82
2022/08/13 06:11:00;;;;;;;4.60;3.65;;;19.80;99.90;;;;;;5056139;28;20045;-82
2022/08/13 06:13:28;;;;;;;6.88;4.05;;;20.00;99.90;;;;;;5054726;28;20045;-83
2022/08/13 06:15:58;;;;;;;5.15;3.80;;;20.20;99.90;;;;;;5056064;28;20127;-82
2022/08/13 06:18:29;;;;;;;6.15;4.28;;;20.30;99.90;;;;;;5056159;28;20045;-82
2022/08/13 06:20:56;;;;;;;6.25;3.67;;;20.50;99.90;;;;;;5055925;28;20048;-82
2022/08/13 06:23:28;;;;;;;8.60;4.07;;;20.70;99.90;;;;;;5054889;28;20045;-82
2022/08/13 06:25:55;;;;;;;8.05;3.40;;;20.90;99.90;;;;;;5054397;28;20508;-82
2022/08/13 06:28:22;;;;;;;6.47;4.13;;;21.10;99.90;;;;;;5055617;28;20412;-82
2022/08/13 06:30:50;;;;;;;4.63;3.22;;;21.20;99.90;;;;;;5054333;28;20044;-83
2022/08/13 06:33:17;;;;;;;7.85;3.50;;;21.30;99.90;;;;;;5055813;28;20119;-82
2022/08/13 06:35:43;;;;;;;7.63;3.33;;;21.50;99.90;;;;;;5054525;28;20049;-83
2022/08/13 06:38:09;;;;;;;5.03;3.25;;;21.70;99.90;;;;;;5054336;28;20040;-82
2022/08/13 06:40:36;;;;;;;5.57;3.42;;;21.90;99.90;;;;;;5055440;28;20134;-85
2022/08/13 06:43:05;;;;;;;4.32;3.28;;;22.00;99.90;;;;;;5046429;28;20235;-86
2022/08/13 06:45:32;;;;;;;6.63;3.50;;;22.10;99.90;;;;;;5035498;28;20037;-87
2022/08/13 06:47:58;;;;;;;5.25;3.55;;;22.30;99.90;;;;;;5035257;28;20053;-85
2022/08/13 06:50:24;;;;;;;8.50;3.40;;;22.40;99.90;;;;;;5035371;28;20038;-84
2022/08/13 06:52:50;;;;;;;5.68;3.55;;;22.50;99.90;;;;;;5035249;28;20077;-85
2022/08/13 06:55:17;;;;;;;6.63;3.38;;;22.70;99.90;;;;;;5035345;28;20072;-89
2022/08/13 06:57:46;;;;;;;7.70;3.85;;;22.80;99.90;;;;;;5033750;28;20057;-90
2022/08/13 07:00:12;;;;;;;4.07;3.10;;;22.90;99.90;;;;;;5035101;28;20049;-88
2022/08/13 07:02:41;;;;;;;7.55;3.03;;;23.00;99.90;;;;;;5035052;28;20125;-86
2022/08/13 07:05:07;;;;;;;5.40;3.15;;;23.20;99.90;;;;;;5033660;28;20051;-84
2022/08/13 07:07:33;;;;;;;5.97;2.88;;;23.30;99.90;;;;;;5033558;28;20488;-84
2022/08/13 07:09:59;;;;;;;5.13;2.80;;;23.40;99.90;;;;;;5035058;28;20041;-84
2022/08/13 07:12:25;;;;;;;9.18;3.10;;;23.50;99.90;;;;;;5034902;28;20052;-84
2022/08/13 07:14:51;;;;;;;5.47;3.00;;;23.70;99.90;;;;;;5034616;28;20041;-84
2022/08/13 07:17:20;;;;;;;5.85;3.47;;;23.80;99.90;;;;;;5033357;28;20073;-82
2022/08/13 07:19:46;;;;;;;4.50;2.80;;;23.90;99.90;;;;;;5034130;28;20481;-84
2022/08/13 07:22:11;;;;;;;4.38;2.72;;;24.00;99.90;;;;;;5033241;28;20059;-86
2022/08/13 07:24:37;;;;;;;5.35;2.88;;;24.10;99.90;;;;;;5033482;28;20056;-84
2022/08/13 07:27:05;;;;;;;4.78;2.35;;;24.30;99.90;;;;;;5033216;28;20107;-84
2022/08/13 07:29:35;;;;;;;4.22;2.50;;;24.40;99.90;;;;;;5034548;28;20098;-84
2022/08/13 07:32:03;;;;;;;5.32;2.50;;;24.50;99.90;;;;;;5034727;28;20041;-86
2022/08/13 07:34:32;;;;;;;5.28;2.78;;;24.60;99.90;;;;;;5034149;28;20045;-83
2022/08/13 07:36:59;;;;;;;4.35;2.50;;;24.80;99.90;;;;;;5032918;28;20106;-82
2022/08/13 07:39:25;;;;;;;3.78;2.30;;;24.80;99.90;;;;;;5032935;28;20041;-87
2022/08/13 07:41:52;;;;;;;4.03;2.20;;;25.00;99.90;;;;;;5032859;28;20045;-84
2022/08/13 07:44:20;;;;;;;6.47;2.17;;;25.10;99.90;;;;;;5034099;28;20064;-84
2022/08/13 07:46:48;;;;;;;4.90;2.30;;;25.30;99.90;;;;;;5034354;28;20037;-86
2022/08/13 07:49:15;;;;;;;4.07;2.00;;;25.40;99.90;;;;;;5033821;28;20157;-88
2022/08/13 07:51:42;;;;;;;5.22;2.00;;;25.60;99.90;;;;;;5032820;28;20400;-86
2022/08/13 07:54:10;;;;;;;4.50;2.33;;;25.70;99.90;;;;;;5033833;28;20405;-84
2022/08/13 07:56:36;;;;;;;5.47;2.25;;;25.80;99.90;;;;;;5032708;28;20128;-85
2022/08/13 07:59:15;;;;;;;4.65;2.00;;;26.00;99.90;;;;;;5032553;28;20060;-85
2022/08/13 08:01:55;;;;;;;17.27;2.70;;;26.00;99.90;;;;;;5032526;28;20077;-85
2022/08/13 08:04:27;;;;;;;3.38;2.00;;;26.20;99.90;;;;;;5033823;28;20041;-85
2022/08/13 08:06:53;;;;;;;4.55;1.95;;;26.20;99.90;;;;;;5033871;28;20103;-84
2022/08/13 08:09:25;;;;;;;4.93;1.95;;;26.40;99.90;;;;;;5031844;28;20091;-84
2022/08/13 08:14:37;;;;;;;4.60;2.05;;;26.50;99.90;;;;;;5047547;28;20090;-83
2022/08/13 08:17:05;;;;;;;4.57;1.70;;;26.70;99.90;;;;;;5051702;28;20515;-83
2022/08/13 08:19:32;;;;;;;5.25;1.90;;;26.90;99.90;;;;;;5052515;28;20044;-85
2022/08/13 08:22:06;;;;;;;4.75;1.73;;;27.00;99.90;;;;;;5043707;28;20473;-83
2022/08/13 08:24:34;;;;;;;5.38;2.42;;;27.10;99.90;;;;;;5034337;28;20049;-83
2022/08/13 08:27:10;;;;;;;2.80;1.98;;;27.20;99.90;;;;;;5032025;28;20108;-83
2022/08/13 08:29:38;;;;;;;4.28;2.10;;;27.20;99.90;;;;;;5033429;28;20053;-83
2022/08/13 08:32:05;;;;;;;2.83;2.00;;;27.40;99.90;;;;;;5032689;28;20485;-82
2022/08/13 08:34:31;;;;;;;3.53;1.90;;;27.30;99.90;;;;;;5033337;28;20076;-83
2022/08/13 08:36:57;;;;;;;2.40;1.65;;;27.50;99.90;;;;;;5033052;28;20516;-83
2022/08/13 08:45:00;;;;;;;5.95;1.83;;;27.80;99.90;;;;;;5049572;28;20049;-83
2022/08/13 08:47:31;;;;;;;3.10;1.95;;;27.90;99.90;;;;;;5033049;28;20061;-82
2022/08/13 08:49:58;;;;;;;2.20;1.70;;;28.10;99.90;;;;;;5033161;28;20054;-83
2022/08/13 08:55:12;;;;;;;2.95;1.65;;;28.20;99.40;;;;;;5051797;28;20056;-83
2022/08/13 08:57:39;;;;;;;3.47;1.85;;;28.30;98.90;;;;;;5052865;28;20052;-82
2022/08/13 09:00:06;;;;;;;2.88;1.70;;;28.40;98.30;;;;;;5051840;28;20051;-83
2022/08/13 09:02:33;;;;;;;3.53;1.80;;;28.50;98.20;;;;;;5052917;28;20523;-85
2022/08/13 09:05:01;;;;;;;3.15;1.70;;;28.50;95.90;;;;;;5050253;28;20037;-83
2022/08/13 09:07:28;;;;;;;3.83;1.85;;;28.60;96.10;;;;;;5033031;28;20095;-83
2022/08/13 09:09:57;;;;;;;4.53;1.70;;;28.60;94.70;;;;;;5038362;28;20041;-83
2022/08/13 09:12:26;;;;;;;4.85;1.65;;;28.70;96.70;;;;;;5041615;28;20041;-84
2022/08/13 09:14:52;;;;;;;2.38;1.42;;;28.80;97.20;;;;;;5051115;28;20400;-84
2022/08/13 09:17:19;;;;;;;2.67;1.65;;;28.90;97.00;;;;;;5049468;28;20443;-84
2022/08/13 09:19:44;;;;;;;4.28;1.52;;;29.00;96.40;;;;;;5049999;28;20124;-83
2022/08/13 09:22:14;;;;;;;2.03;1.40;;;29.10;94.10;;;;;;5052593;28;20125;-87
2022/08/13 09:24:45;;;;;;;2.65;1.50;;;29.00;95.30;;;;;;5052554;28;20040;-83
2022/08/13 09:27:15;;;;;;;4.80;1.77;;;29.10;94.80;;;;;;5052615;28;20056;-87
2022/08/13 09:29:42;;;;;;;3.83;1.60;;;29.20;94.50;;;;;;5052543;28;20563;-84
2022/08/13 09:32:09;;;;;;;3.15;1.85;;;29.30;94.40;;;;;;5051693;28;20045;-86
2022/08/13 09:34:39;;;;;;;1.95;1.55;;;29.40;93.80;;;;;;5051351;28;20111;-88
2022/08/13 09:37:07;;;;;;;5.57;1.63;;;29.40;94.20;;;;;;5051235;28;20045;-84
2022/08/13 09:39:36;;;;;;;3.53;1.70;;;29.60;94.50;;;;;;5052566;28;20063;-83
2022/08/13 09:42:13;;;;;;;3.95;1.30;;;29.60;93.80;;;;;;5051709;28;20049;-84
2022/08/13 09:44:41;;;;;;;3.78;1.73;;;29.60;91.00;;;;;;5055373;28;20053;-85
2022/08/13 09:47:10;;;;;;;3.78;1.77;;;29.70;93.80;;;;;;5056254;28;20037;-83
2022/08/13 09:49:39;;;;;;;4.38;1.65;;;29.90;94.20;;;;;;5056196;28;20056;-84
2022/08/13 09:52:05;;;;;;;4.35;1.70;;;29.80;91.20;;;;;;5056345;28;20041;-84
2022/08/13 09:54:32;;;;;;;3.53;1.60;;;29.90;92.30;;;;;;5056125;28;20044;-83
2022/08/13 09:56:58;;;;;;;2.50;1.38;;;30.00;92.90;;;;;;5056165;28;20060;-84
2022/08/13 09:59:24;;;;;;;2.58;1.30;;;30.10;91.70;;;;;;5056004;28;20102;-87
2022/08/13 10:01:50;;;;;;;3.20;1.42;;;30.20;91.30;;;;;;5055008;28;20041;-84
2022/08/13 10:04:19;;;;;;;2.58;1.67;;;30.10;88.00;;;;;;5054942;28;20060;-80
2022/08/13 10:06:47;;;;;;;3.95;1.65;;;30.20;90.80;;;;;;5055919;28;20044;-82
2022/08/13 10:09:14;;;;;;;3.45;1.50;;;30.30;86.50;;;;;;5054880;28;20109;-91
2022/08/13 10:11:40;;;;;;;3.65;1.33;;;30.40;90.10;;;;;;5054846;28;20041;-89
2022/08/13 10:14:06;;;;;;;3.03;1.50;;;30.40;88.80;;;;;;5055745;28;20419;-83
2022/08/13 10:16:33;;;;;;;3.05;1.45;;;30.50;89.80;;;;;;5054690;28;20056;-86
2022/08/13 10:19:01;;;;;;;2.45;1.50;;;30.50;88.70;;;;;;5055511;28;20515;-82
2022/08/13 10:21:27;;;;;;;4.55;1.52;;;30.60;86.40;;;;;;5054813;28;20044;-86
2022/08/13 10:23:53;;;;;;;4.15;1.52;;;30.60;84.60;;;;;;5055563;28;20056;-87
2022/08/13 10:26:19;;;;;;;3.20;1.80;;;30.60;86.10;;;;;;5055528;28;20049;-84
2022/08/13 10:28:48;;;;;;;2.13;1.40;;;30.70;82.50;;;;;;5055705;28;20063;-84
2022/08/13 10:31:14;;;;;;;3.47;1.50;;;30.80;85.00;;;;;;5054089;28;20106;-84
2022/08/13 10:33:40;;;;;;;2.17;1.50;;;30.70;81.00;;;;;;5055310;28;20045;-85
2022/08/13 10:36:08;;;;;;;3.10;1.60;;;30.80;83.20;;;;;;5054014;28;20462;-85
2022/08/13 10:38:34;;;;;;;3.70;1.67;;;31.00;83.50;;;;;;5054329;28;20506;-84
2022/08/13 10:41:04;;;;;;;4.80;1.75;;;31.10;82.80;;;;;;5055207;28;20037;-84
2022/08/13 10:43:31;;;;;;;2.63;1.67;;;31.10;75.50;;;;;;5054308;28;20396;-83
2022/08/13 10:45:59;;;;;;;2.83;1.40;;;31.10;78.10;;;;;;5053911;28;20044;-83
2022/08/13 10:48:28;;;;;;;3.60;1.60;;;31.20;80.90;;;;;;5055028;28;20127;-84
2022/08/13 10:50:55;;;;;;;1.75;1.40;;;31.20;79.00;;;;;;5055334;28;20074;-83
2022/08/13 10:56:08;;;;;;;8.10;1.90;;;31.30;77.80;;;;;;5055056;28;20136;-84
2022/08/13 10:58:34;;;;;;;7.05;1.80;;;31.50;76.10;;;;;;5053643;28;20166;-85
2022/08/13 11:01:03;;;;;;;3.40;1.90;;;31.50;78.70;;;;;;5055042;28;20043;-84
2022/08/13 11:03:33;;;;;;;3.72;1.50;;;31.50;76.10;;;;;;5055090;28;20075;-85
2022/08/13 11:06:06;;;;;;;2.67;1.38;;;31.60;79.00;;;;;;5055030;28;20045;-83
2022/08/13 11:08:36;;;;;;;4.63;1.60;;;31.70;76.20;;;;;;5054966;28;20566;-84
2022/08/13 11:11:06;;;;;;;3.00;1.52;;;31.70;75.30;;;;;;5054622;28;20452;-84
2022/08/13 11:13:32;;;;;;;2.72;1.40;;;31.70;76.40;;;;;;5054675;28;20538;-86
2022/08/13 11:16:00;;;;;;;3.25;1.85;;;31.70;74.50;;;;;;5053236;28;20088;-84
2022/08/13 11:18:27;;;;;;;2.45;1.80;;;31.80;73.30;;;;;;5054608;28;20045;-80
2022/08/13 11:21:03;;;;;;;3.03;1.60;;;31.60;73.10;;;;;;5054406;28;20053;-85
2022/08/13 11:23:33;;;;;;;4.15;1.70;;;31.80;74.90;;;;;;5054484;28;20041;-84
2022/08/13 11:25:59;;;;;;;2.90;1.67;;;31.80;73.50;;;;;;5054274;28;20060;-85
2022/08/13 11:28:24;;;;;;;3.95;1.38;;;31.60;71.70;;;;;;5054352;28;20049;-86
2022/08/13 11:30:53;;;;;;;3.22;1.50;;;31.80;74.60;;;;;;5053341;28;20044;-84
2022/08/13 11:33:20;;;;;;;2.55;1.40;;;32.00;73.70;;;;;;5054291;28;20132;-84
2022/08/13 11:35:46;;;;;;;2.45;1.63;;;31.80;69.30;;;;;;5054328;28;20041;-85
2022/08/13 11:38:13;;;;;;;5.45;1.95;;;32.00;73.10;;;;;;5052877;28;20076;-84
2022/08/13 11:40:46;;;;;;;3.42;1.50;;;32.00;71.30;;;;;;5052840;28;20534;-84
2022/08/13 11:43:12;;;;;;;3.88;1.40;;;31.50;69.70;;;;;;5054111;28;20090;-82
2022/08/13 11:45:37;;;;;;;1.60;1.38;;;31.40;68.50;;;;;;5052861;28;20041;-80
2022/08/13 11:48:05;;;;;;;2.42;1.20;;;31.90;71.40;;;;;;5054022;28;20049;-80
2022/08/13 11:50:31;;;;;;;2.53;1.50;;;31.90;67.70;;;;;;5052731;28;20124;-80
2022/08/13 11:52:57;;;;;;;4.60;1.60;;;31.60;66.10;;;;;;5053745;28;20129;-82
2022/08/13 11:55:22;;;;;;;3.70;1.35;;;31.80;70.70;;;;;;5053903;28;20381;-83
2022/08/13 11:57:57;;;;;;;3.65;1.52;;;31.80;66.80;;;;;;5052490;28;20053;-82
2022/08/13 12:00:23;;;;;;;3.15;1.58;;;31.80;67.90;;;;;;5052641;28;20049;-82
2022/08/13 12:02:48;;;;;;;3.05;1.30;;;31.70;67.50;;;;;;5052477;28;20056;-82
2022/08/13 12:05:14;;;;;;;5.28;1.40;;;31.80;68.20;;;;;;5053200;28;20052;-82
2022/08/13 12:07:40;;;;;;;1.80;1.27;;;31.80;65.50;;;;;;5053451;28;20041;-83
2022/08/13 12:10:06;;;;;;;1.45;1.17;;;31.90;63.80;;;;;;5052360;28;20545;-81
2022/08/13 12:12:32;;;;;;;4.60;1.75;;;31.90;66.20;;;;;;5052229;28;20048;-83
2022/08/13 12:14:59;;;;;;;4.05;1.60;;;32.20;68.20;;;;;;5053575;28;20049;-83
2022/08/13 12:17:24;;;;;;;2.17;1.38;;;32.20;65.80;;;;;;5053349;28;20045;-83
2022/08/13 12:19:50;;;;;;;2.50;1.45;;;32.30;65.20;;;;;;5053386;28;20049;-84
2022/08/13 12:22:16;;;;;;;6.35;1.45;;;32.20;66.70;;;;;;5053472;28;20102;-83
2022/08/13 12:24:41;;;;;;;2.10;1.30;;;32.20;63.90;;;;;;5052357;28;20061;-82
2022/08/13 12:27:07;;;;;;;3.22;1.40;;;32.20;64.60;;;;;;5053175;28;20053;-83
2022/08/13 12:29:34;;;;;;;1.88;1.30;;;32.40;66.10;;;;;;5053591;28;20083;-80
2022/08/13 12:32:00;;;;;;;2.13;1.50;;;32.40;65.90;;;;;;5053545;28;20049;-83
2022/08/13 12:34:26;;;;;;;2.67;1.50;;;32.30;65.50;;;;;;5051920;28;20096;-83
2022/08/13 12:36:51;;;;;;;3.45;1.73;;;32.20;64.40;;;;;;5053216;28;20045;-81
2022/08/13 12:39:17;;;;;;;4.38;1.55;;;32.10;61.70;;;;;;5051919;28;20041;-81
2022/08/13 12:41:43;;;;;;;2.53;1.70;;;31.90;63.30;;;;;;5053470;28;20041;-84
2022/08/13 12:44:10;;;;;;;4.32;1.50;;;32.00;64.00;;;;;;5053192;28;20401;-81
2022/08/13 12:46:36;;;;;;;4.38;1.75;;;32.00;63.90;;;;;;5053202;28;20049;-85
2022/08/13 12:49:04;;;;;;;4.05;1.50;;;31.90;63.90;;;;;;5053035;28;20048;-80
2022/08/13 12:51:29;;;;;;;2.63;1.30;;;31.70;72.40;;;;;;5053365;28;20079;-80
2022/08/13 12:53:55;;;;;;;2.63;1.58;;;31.80;74.30;;;;;;5052055;28;20565;-84
2022/08/13 12:56:20;;;;;;;3.22;1.55;;;32.20;76.10;;;;;;5052956;28;20051;-83
2022/08/13 12:58:46;;;;;;;2.83;1.70;;;31.80;66.00;;;;;;5053042;28;20037;-84
2022/08/13 13:01:12;;;;;;;4.93;1.83;;;32.10;71.70;;;;;;5053044;28;20040;-82
2022/08/13 13:03:37;;;;;;;3.90;1.48;;;32.00;66.60;;;;;;5053116;28;20507;-83
2022/08/13 13:06:03;;;;;;;2.00;1.50;;;32.00;65.50;;;;;;5053325;28;20392;-84
2022/08/13 13:08:30;;;;;;;3.88;1.40;;;32.00;65.50;;;;;;5053232;28;20463;-83
2022/08/13 13:11:04;;;;;;;2.20;1.60;;;31.80;63.80;;;;;;5051662;28;20047;-85
2022/08/13 13:13:32;;;;;;;2.72;1.50;;;31.70;63.20;;;;;;5052006;28;20041;-86
2022/08/13 13:15:57;;;;;;;2.20;1.70;;;31.20;71.10;;;;;;5053030;28;20037;-83